Time;durP1;ratioP1;P1;durP2;ratioP2;P2;SDS_P1;SDS_P2;PMS_P1;PMS_P2;Temp;Humidity;BMP_temperature;BMP_pressure;BME280_temperature;BME280_humidity;BME280_pressure;Samples;Min_cycle;Max_cycle;Signal;HPM_P1;HPM_P2
2023/05/19 00:01:31;;;;;;;10.45;3.95;;;9.60;99.90;;;;;;5132008;27;20114;-55
2023/05/19 00:04:01;;;;;;;11.55;3.63;;;9.40;99.90;;;;;;5113896;27;20031;-53
2023/05/19 00:06:32;;;;;;;12.85;3.90;;;9.50;99.90;;;;;;5132515;27;20508;-57
2023/05/19 00:09:03;;;;;;;14.60;3.85;;;10.00;99.90;;;;;;5132505;27;20035;-55
2023/05/19 00:11:30;;;;;;;15.18;4.07;;;9.50;99.90;;;;;;5132145;27;20039;-57
2023/05/19 00:13:58;;;;;;;14.82;3.95;;;9.40;99.90;;;;;;5132136;27;20043;-54
2023/05/19 00:16:25;;;;;;;13.40;4.85;;;9.40;99.90;;;;;;5132200;27;20058;-57
2023/05/19 00:18:52;;;;;;;13.18;4.03;;;10.10;99.90;;;;;;5112408;27;20042;-58
2023/05/19 00:21:18;;;;;;;10.35;3.67;;;9.40;99.90;;;;;;5132041;27;20046;-55
2023/05/19 00:23:44;;;;;;;12.30;3.78;;;9.50;99.90;;;;;;5131839;27;20062;-55
2023/05/19 00:26:10;;;;;;;11.13;4.30;;;9.50;99.90;;;;;;5132006;27;20058;-56
2023/05/19 00:28:36;;;;;;;13.57;4.53;;;9.40;99.90;;;;;;5132300;27;20382;-58
2023/05/19 00:31:06;;;;;;;15.77;3.95;;;9.40;99.90;;;;;;5131762;27;20050;-55
2023/05/19 00:33:35;;;;;;;14.00;4.47;;;9.30;99.90;;;;;;5131284;27;20067;-57
2023/05/19 00:36:04;;;;;;;9.68;4.30;;;9.40;99.90;;;;;;5131610;27;20056;-59
2023/05/19 00:38:31;;;;;;;11.68;4.30;;;9.40;99.90;;;;;;5131452;27;20079;-55
2023/05/19 00:40:58;;;;;;;15.80;4.78;;;9.30;99.90;;;;;;5131640;27;20514;-56
2023/05/19 00:43:24;;;;;;;12.95;4.22;;;9.30;99.90;;;;;;5112737;28;20035;-57
2023/05/19 00:45:50;;;;;;;12.25;4.18;;;9.10;99.90;;;;;;5131796;28;20087;-56
2023/05/19 00:48:16;;;;;;;11.80;5.35;;;9.50;99.90;;;;;;5132053;28;20035;-56
2023/05/19 00:50:42;;;;;;;11.18;4.25;;;9.20;99.90;;;;;;5131899;28;20070;-58
2023/05/19 00:53:08;;;;;;;14.18;4.88;;;9.30;99.90;;;;;;5131830;28;20035;-55
2023/05/19 00:55:37;;;;;;;12.38;4.05;;;9.20;99.90;;;;;;5131282;28;20062;-52
2023/05/19 00:58:04;;;;;;;12.48;6.22;;;9.20;99.90;;;;;;5132043;28;20114;-55
2023/05/19 01:00:30;;;;;;;11.57;4.70;;;9.00;99.90;;;;;;5112922;28;20043;-56
2023/05/19 01:02:56;;;;;;;11.18;4.35;;;9.20;99.90;;;;;;5131859;28;20038;-57
2023/05/19 01:05:22;;;;;;;15.15;4.82;;;9.10;99.90;;;;;;5131597;28;20031;-57
2023/05/19 01:07:52;;;;;;;12.20;5.00;;;9.00;99.90;;;;;;5131462;28;20031;-56
2023/05/19 01:10:18;;;;;;;16.08;4.55;;;9.30;99.90;;;;;;5130974;28;20474;-55
2023/05/19 01:12:45;;;;;;;19.00;5.00;;;8.90;99.90;;;;;;5131646;28;20035;-56
2023/05/19 01:15:11;;;;;;;12.23;4.70;;;8.90;99.90;;;;;;5131151;27;20067;-55
2023/05/19 01:18:10;;;;;;;12.75;4.43;;;8.90;99.90;;;;;;5131597;28;20054;-58
2023/05/19 01:20:46;;;;;;;11.85;4.78;;;8.80;99.90;;;;;;5130839;28;20057;-55
2023/05/19 01:23:22;;;;;;;13.43;4.45;;;8.80;99.90;;;;;;5131646;28;20070;-56
2023/05/19 01:25:56;;;;;;;17.80;5.10;;;8.90;99.90;;;;;;5131724;28;20031;-58
2023/05/19 01:28:22;;;;;;;;;;;8.80;99.90;;;;;;5131835;28;20490;-58
2023/05/19 01:30:53;;;;;;;14.48;6.70;;;8.80;99.90;;;;;;5131198;28;19966;-56
2023/05/19 01:33:21;;;;;;;12.02;5.75;;;8.80;99.90;;;;;;5131221;27;20058;-53
2023/05/19 01:35:47;;;;;;;14.68;4.30;;;8.90;99.90;;;;;;5134467;27;20070;-56
2023/05/19 01:38:16;;;;;;;11.63;4.90;;;8.90;99.90;;;;;;5134919;27;20047;-53
2023/05/19 01:40:43;;;;;;;12.25;4.82;;;8.80;99.90;;;;;;5135318;27;20491;-53
2023/05/19 01:43:12;;;;;;;14.43;4.95;;;8.70;99.90;;;;;;5135272;27;20039;-53
2023/05/19 01:45:39;;;;;;;13.88;5.80;;;8.70;99.90;;;;;;5135298;27;20387;-55
2023/05/19 01:48:05;;;;;;;18.05;6.88;;;8.70;99.90;;;;;;5134618;27;20039;-55
2023/05/19 01:50:32;;;;;;;12.57;4.97;;;8.70;99.90;;;;;;5134874;27;20049;-58
2023/05/19 01:52:58;;;;;;;17.55;5.88;;;8.80;99.90;;;;;;5135011;27;20043;-57
2023/05/19 01:55:24;;;;;;;20.15;5.93;;;8.70;99.90;;;;;;5135079;27;20096;-50
2023/05/19 01:57:53;;;;;;;11.35;4.72;;;8.50;99.90;;;;;;5134883;27;20070;-55
2023/05/19 02:00:56;;;;;;;12.40;5.30;;;8.60;99.90;;;;;;5134974;27;20039;-57
2023/05/19 02:03:59;;;;;;;19.48;5.53;;;8.50;99.90;;;;;;5134789;27;20385;-57
2023/05/19 02:06:46;;;;;;;15.38;5.43;;;8.50;99.90;;;;;;5134533;27;20035;-55
2023/05/19 02:09:22;;;;;;;11.40;5.60;;;8.50;99.90;;;;;;5134482;27;20049;-56
2023/05/19 02:11:59;;;;;;;15.52;5.70;;;8.50;99.90;;;;;;5134896;27;20046;-54
2023/05/19 02:14:58;;;;;;;16.83;5.63;;;8.60;99.90;;;;;;5115435;27;20058;-55
2023/05/19 02:17:31;;;;;;;14.93;5.32;;;8.40;99.90;;;;;;5134728;27;20082;-54
2023/05/19 02:19:58;;;;;;;13.63;5.00;;;8.50;99.90;;;;;;5134657;27;20128;-55
2023/05/19 02:22:24;;;;;;;13.60;4.97;;;8.40;99.90;;;;;;5134589;27;20095;-54
2023/05/19 02:24:50;;;;;;;16.77;5.85;;;8.30;99.90;;;;;;5115678;27;20038;-55
2023/05/19 02:27:17;;;;;;;20.08;5.30;;;8.40;99.90;;;;;;5116125;27;20364;-54
2023/05/19 02:29:42;;;;;;;13.25;5.22;;;8.30;99.90;;;;;;5134110;27;20497;-54
2023/05/19 02:32:08;;;;;;;18.50;5.72;;;8.30;99.90;;;;;;5133487;27;20039;-58
2023/05/19 02:34:34;;;;;;;16.52;5.40;;;8.60;99.90;;;;;;5134362;27;20114;-55
2023/05/19 02:37:00;;;;;;;14.20;5.22;;;8.40;99.90;;;;;;5133868;27;20043;-56
2023/05/19 02:39:25;;;;;;;16.60;6.05;;;8.40;99.90;;;;;;5134383;27;20027;-56
2023/05/19 02:41:51;;;;;;;15.02;6.32;;;8.30;99.90;;;;;;5134184;27;20106;-56
2023/05/19 02:44:17;;;;;;;14.43;5.93;;;8.20;99.90;;;;;;5134189;27;20432;-54
2023/05/19 02:46:42;;;;;;;13.80;7.63;;;8.20;99.90;;;;;;5133507;27;20479;-54
2023/05/19 02:49:08;;;;;;;15.52;5.57;;;8.30;99.90;;;;;;5133463;27;20039;-54
2023/05/19 02:51:34;;;;;;;13.38;6.03;;;8.30;99.90;;;;;;5133954;27;20039;-57
2023/05/19 02:54:00;;;;;;;14.55;5.82;;;8.20;99.90;;;;;;5133829;27;20042;-57
2023/05/19 02:56:27;;;;;;;14.75;5.78;;;8.20;99.90;;;;;;5133698;27;20496;-55
2023/05/19 02:58:52;;;;;;;12.80;5.70;;;8.20;99.90;;;;;;5133663;27;20069;-55
2023/05/19 03:01:20;;;;;;;19.92;6.22;;;8.20;99.90;;;;;;5133395;27;20039;-55
2023/05/19 03:03:45;;;;;;;13.63;5.32;;;8.20;99.90;;;;;;5115483;27;20042;-56
2023/05/19 03:06:11;;;;;;;13.00;5.68;;;8.10;99.90;;;;;;5133212;27;20039;-59
2023/05/19 03:08:37;;;;;;;17.88;5.50;;;8.10;99.90;;;;;;5133408;27;20035;-54
2023/05/19 03:11:03;;;;;;;15.50;5.75;;;8.10;99.90;;;;;;5133211;27;20395;-56
2023/05/19 03:13:28;;;;;;;17.88;5.57;;;8.10;99.90;;;;;;5133324;27;20027;-58
2023/05/19 03:15:57;;;;;;;18.08;7.60;;;8.20;99.90;;;;;;5133379;27;20042;-57
2023/05/19 03:18:25;;;;;;;12.88;5.35;;;8.00;99.90;;;;;;5133511;27;20428;-55
2023/05/19 03:20:52;;;;;;;15.90;5.53;;;8.10;99.90;;;;;;5133280;27;20042;-56
2023/05/19 03:23:19;;;;;;;15.55;5.82;;;8.10;99.90;;;;;;5133073;27;20069;-58
2023/05/19 03:25:44;;;;;;;18.63;5.82;;;8.20;99.90;;;;;;5131747;27;20092;-55
2023/05/19 03:28:10;;;;;;;18.23;8.13;;;8.00;99.90;;;;;;5133436;27;20042;-54
2023/05/19 03:30:36;;;;;;;16.80;5.50;;;8.10;99.90;;;;;;5132050;27;20448;-56
2023/05/19 03:33:01;;;;;;;15.85;5.40;;;8.00;99.90;;;;;;5132737;27;20134;-55
2023/05/19 03:35:27;;;;;;;18.23;5.47;;;8.00;99.90;;;;;;5132901;27;20027;-54
2023/05/19 03:37:53;;;;;;;13.27;5.40;;;8.00;99.90;;;;;;5132985;27;20513;-55
2023/05/19 03:40:19;;;;;;;16.98;5.72;;;7.90;99.90;;;;;;5132913;27;20100;-56
2023/05/19 03:42:44;;;;;;;17.27;6.18;;;8.00;99.90;;;;;;5133001;27;20106;-53
2023/05/19 03:45:10;;;;;;;14.05;7.38;;;8.00;99.90;;;;;;5132739;27;20474;-55
2023/05/19 03:47:36;;;;;;;17.92;5.95;;;8.00;99.90;;;;;;5132969;27;20074;-53
2023/05/19 03:50:02;;;;;;;17.65;6.18;;;8.00;99.90;;;;;;5132727;27;20039;-56
2023/05/19 03:52:27;;;;;;;18.85;6.20;;;8.00;99.90;;;;;;5114174;27;20443;-56
2023/05/19 03:54:53;;;;;;;17.77;6.15;;;8.00;99.90;;;;;;5132722;27;20437;-54
2023/05/19 03:57:19;;;;;;;16.02;6.00;;;7.90;99.90;;;;;;5131968;27;20122;-54
2023/05/19 03:59:45;;;;;;;22.77;6.28;;;8.00;99.90;;;;;;5132566;27;20453;-53
2023/05/19 04:02:11;;;;;;;21.55;6.13;;;8.10;99.90;;;;;;5096433;27;20086;-56
2023/05/19 04:04:36;;;;;;;17.73;6.22;;;7.90;99.90;;;;;;5114304;27;20031;-54
2023/05/19 04:07:02;;;;;;;16.70;5.45;;;8.00;99.90;;;;;;5113724;27;20325;-56
2023/05/19 04:09:30;;;;;;;16.67;5.95;;;8.00;99.90;;;;;;5132235;27;20043;-55
2023/05/19 04:11:56;;;;;;;12.85;8.02;;;7.90;99.90;;;;;;5132485;27;20517;-58
2023/05/19 04:14:22;;;;;;;17.98;6.30;;;8.10;99.90;;;;;;5131951;27;20039;-56
2023/05/19 04:16:48;;;;;;;14.02;5.57;;;8.00;99.90;;;;;;5132329;27;20061;-56
2023/05/19 04:19:14;;;;;;;20.02;6.13;;;8.00;99.90;;;;;;5113737;27;20069;-54
2023/05/19 04:21:39;;;;;;;13.23;5.43;;;8.10;99.90;;;;;;5113487;27;20088;-54
2023/05/19 04:24:05;;;;;;;16.98;6.97;;;8.00;99.90;;;;;;5132176;27;20493;-55
2023/05/19 04:26:33;;;;;;;12.82;5.90;;;8.10;99.90;;;;;;5131821;27;20042;-54
2023/05/19 04:29:00;;;;;;;19.73;5.55;;;8.10;99.90;;;;;;5131780;27;20082;-55
2023/05/19 04:31:27;;;;;;;14.55;6.15;;;8.10;99.90;;;;;;5132018;27;20065;-55
2023/05/19 04:33:53;;;;;;;15.45;6.15;;;8.20;99.90;;;;;;5132159;27;20436;-55
2023/05/19 04:36:20;;;;;;;15.85;5.80;;;8.20;99.90;;;;;;5132071;27;20439;-56
2023/05/19 04:38:46;;;;;;;17.10;6.28;;;8.20;99.90;;;;;;5131381;27;20104;-56
2023/05/19 04:41:12;;;;;;;16.25;6.00;;;8.30;99.90;;;;;;5130549;27;20110;-55
2023/05/19 04:43:40;;;;;;;15.45;6.03;;;8.30;99.90;;;;;;5131792;27;20062;-58
2023/05/19 04:46:08;;;;;;;17.00;7.07;;;8.30;99.90;;;;;;5113257;28;20051;-57
2023/05/19 04:48:34;;;;;;;20.55;7.22;;;8.40;99.90;;;;;;5131490;27;20039;-58
2023/05/19 04:51:00;;;;;;;18.70;7.10;;;8.40;99.90;;;;;;5132015;28;20077;-55
2023/05/19 04:53:27;;;;;;;16.73;7.32;;;8.40;99.90;;;;;;5131887;28;20031;-58
2023/05/19 04:55:53;;;;;;;18.73;6.55;;;8.60;99.90;;;;;;5131564;27;20100;-58
2023/05/19 04:58:18;;;;;;;19.02;6.18;;;8.50;99.90;;;;;;5131579;28;20519;-57
2023/05/19 05:00:44;;;;;;;15.75;6.95;;;8.50;99.90;;;;;;5131279;28;20023;-55
2023/05/19 05:03:11;;;;;;;15.43;6.78;;;8.50;99.90;;;;;;5112903;28;20039;-56
2023/05/19 05:05:36;;;;;;;18.90;6.97;;;8.60;99.90;;;;;;5131245;28;20035;-55
2023/05/19 05:08:02;;;;;;;13.07;6.82;;;8.70;99.90;;;;;;5132393;27;20505;-56
2023/05/19 05:10:28;;;;;;;16.98;6.60;;;8.70;99.90;;;;;;5135499;27;20023;-56
2023/05/19 05:12:54;;;;;;;16.55;6.30;;;8.70;99.90;;;;;;5135781;27;20124;-55
2023/05/19 05:15:21;;;;;;;17.05;6.75;;;8.80;99.90;;;;;;5135297;27;20035;-55
2023/05/19 05:17:47;;;;;;;14.52;6.40;;;8.80;99.90;;;;;;5135635;27;20074;-55
2023/05/19 05:20:13;;;;;;;16.88;7.15;;;8.80;99.90;;;;;;5135687;27;20027;-55
2023/05/19 05:22:39;;;;;;;18.25;7.18;;;8.80;99.90;;;;;;5116981;27;20118;-57
2023/05/19 05:25:06;;;;;;;17.63;7.55;;;8.80;99.90;;;;;;5135621;27;20043;-55
2023/05/19 05:27:31;;;;;;;15.27;6.45;;;8.90;99.90;;;;;;5135722;27;20126;-55
2023/05/19 05:29:57;;;;;;;14.07;6.22;;;8.90;99.90;;;;;;5135462;27;20117;-55
2023/05/19 05:32:23;;;;;;;14.05;6.72;;;9.10;99.90;;;;;;5135199;27;20493;-56
2023/05/19 05:34:49;;;;;;;15.60;6.95;;;9.00;99.90;;;;;;5135059;27;20604;-56
2023/05/19 05:37:15;;;;;;;15.45;7.18;;;9.10;99.90;;;;;;5135173;27;20068;-57
2023/05/19 05:39:41;;;;;;;15.68;6.90;;;9.10;99.90;;;;;;5135290;27;20116;-56
2023/05/19 05:42:09;;;;;;;13.73;6.70;;;9.10;99.90;;;;;;5135456;27;20130;-55
2023/05/19 05:44:35;;;;;;;16.08;6.88;;;9.10;99.90;;;;;;5135208;27;20054;-56
2023/05/19 05:47:02;;;;;;;15.85;7.00;;;9.20;99.90;;;;;;5135142;27;20103;-54
2023/05/19 05:49:28;;;;;;;17.05;7.00;;;9.30;99.90;;;;;;5135224;27;20078;-58
2023/05/19 05:51:54;;;;;;;15.98;6.85;;;9.40;99.90;;;;;;5135291;27;20062;-58
2023/05/19 05:54:23;;;;;;;14.90;6.90;;;9.40;99.90;;;;;;5135029;27;20530;-56
2023/05/19 05:56:50;;;;;;;15.80;7.03;;;9.50;99.90;;;;;;5134882;27;20562;-53
2023/05/19 05:59:15;;;;;;;15.93;7.78;;;9.60;99.90;;;;;;5134967;27;20043;-58
2023/05/19 06:01:42;;;;;;;14.25;6.45;;;9.60;99.90;;;;;;5134334;27;20042;-56
2023/05/19 06:04:08;;;;;;;15.20;6.53;;;9.70;99.90;;;;;;5134899;27;20028;-57
2023/05/19 06:06:36;;;;;;;18.08;7.47;;;9.70;99.90;;;;;;5134805;27;20062;-55
2023/05/19 06:09:02;;;;;;;16.83;6.57;;;9.80;99.90;;;;;;5134547;27;20062;-55
2023/05/19 06:11:28;;;;;;;17.23;6.65;;;9.90;99.90;;;;;;5116502;27;20047;-57
2023/05/19 06:13:54;;;;;;;14.82;6.28;;;10.00;99.90;;;;;;5134954;27;20539;-57
2023/05/19 06:16:20;;;;;;;14.85;6.40;;;10.00;99.90;;;;;;5134134;27;20569;-56
2023/05/19 06:18:45;;;;;;;17.73;6.88;;;10.10;99.90;;;;;;5134635;27;20035;-56
2023/05/19 06:21:12;;;;;;;16.02;6.90;;;10.20;99.90;;;;;;5133797;27;20489;-56
2023/05/19 06:23:40;;;;;;;14.20;7.30;;;10.30;99.90;;;;;;5134419;27;20055;-56
2023/05/19 06:26:06;;;;;;;19.75;7.20;;;10.30;99.90;;;;;;5134461;27;20153;-59
2023/05/19 06:28:32;;;;;;;16.38;6.47;;;10.40;99.90;;;;;;5134568;27;20118;-56
2023/05/19 06:30:58;;;;;;;14.30;7.07;;;10.50;99.90;;;;;;5133924;27;20039;-56
2023/05/19 06:33:24;;;;;;;14.48;6.53;;;10.50;99.90;;;;;;5134481;27;20042;-57
2023/05/19 06:35:50;;;;;;;14.00;6.50;;;10.60;99.90;;;;;;5134194;27;20125;-57
2023/05/19 06:38:16;;;;;;;10.80;6.68;;;10.70;99.90;;;;;;5133799;27;20180;-55
2023/05/19 06:40:42;;;;;;;14.38;6.13;;;10.70;99.90;;;;;;5134138;27;20119;-54
2023/05/19 06:43:08;;;;;;;19.90;6.20;;;10.80;99.90;;;;;;5115261;27;20489;-55
2023/05/19 06:45:34;;;;;;;18.38;5.95;;;10.80;99.90;;;;;;5133747;27;20440;-56
2023/05/19 06:48:00;;;;;;;15.88;6.22;;;10.90;99.90;;;;;;5134114;27;20064;-56
2023/05/19 06:50:25;;;;;;;15.43;6.25;;;10.90;99.90;;;;;;5133647;27;20088;-58
2023/05/19 06:52:51;;;;;;;13.50;5.00;;;11.00;99.90;;;;;;5133859;27;20073;-58
2023/05/19 06:55:17;;;;;;;11.48;5.00;;;11.10;99.90;;;;;;5133807;27;20035;-56
2023/05/19 06:57:43;;;;;;;12.45;5.47;;;11.10;99.90;;;;;;5133536;27;20035;-54
2023/05/19 07:00:11;;;;;;;10.40;5.20;;;11.20;99.90;;;;;;5133717;27;20043;-59
2023/05/19 07:02:39;;;;;;;12.15;5.32;;;11.30;99.90;;;;;;5114931;27;20046;-59
2023/05/19 07:05:06;;;;;;;11.32;5.45;;;11.30;99.90;;;;;;5133719;27;20043;-56
2023/05/19 07:07:32;;;;;;;11.77;5.65;;;11.50;99.90;;;;;;5133754;27;20046;-57
2023/05/19 07:09:58;;;;;;;14.70;5.63;;;11.50;99.90;;;;;;5133128;27;20041;-55
2023/05/19 07:12:25;;;;;;;13.23;5.13;;;11.60;99.90;;;;;;5133655;27;20031;-56
2023/05/19 07:14:51;;;;;;;15.50;5.55;;;11.70;99.90;;;;;;5133111;27;20371;-54
2023/05/19 07:17:17;;;;;;;14.35;5.80;;;11.80;99.90;;;;;;5133567;27;20129;-57
2023/05/19 07:19:42;;;;;;;11.00;5.25;;;11.90;99.90;;;;;;5133198;27;20110;-57
2023/05/19 07:22:08;;;;;;;11.85;4.65;;;11.90;99.90;;;;;;5133409;27;20100;-56
2023/05/19 07:24:34;;;;;;;13.13;4.65;;;12.00;99.90;;;;;;5114821;27;20031;-54
2023/05/19 07:27:00;;;;;;;14.55;5.07;;;12.10;99.90;;;;;;5133321;27;20065;-56
2023/05/19 07:29:26;;;;;;;14.18;5.10;;;12.10;99.90;;;;;;5132704;27;20031;-56
2023/05/19 07:31:53;;;;;;;13.82;4.78;;;12.20;99.90;;;;;;5132905;27;20042;-55
2023/05/19 07:34:21;;;;;;;13.63;4.47;;;12.30;99.90;;;;;;5114536;27;20394;-56
2023/05/19 07:36:47;;;;;;;12.00;4.18;;;12.40;99.90;;;;;;5133052;27;20048;-58
2023/05/19 07:39:13;;;;;;;10.80;3.88;;;12.50;99.90;;;;;;5132540;27;20677;-57
2023/05/19 07:41:38;;;;;;;9.80;3.92;;;12.60;99.90;;;;;;5132675;27;20043;-56
2023/05/19 07:44:07;;;;;;;12.68;4.07;;;12.70;99.90;;;;;;5131444;27;20027;-52
2023/05/19 07:46:36;;;;;;;9.65;4.03;;;12.80;99.90;;;;;;5132881;27;20386;-58
2023/05/19 07:49:03;;;;;;;12.90;4.03;;;12.90;99.90;;;;;;5132789;27;20031;-55
2023/05/19 07:51:28;;;;;;;11.80;3.53;;;13.00;99.90;;;;;;5132759;27;20482;-57
2023/05/19 07:53:54;;;;;;;11.05;3.40;;;13.10;99.90;;;;;;5132429;27;20041;-57
2023/05/19 07:56:20;;;;;;;12.07;3.38;;;13.10;99.90;;;;;;5113775;27;20050;-57
2023/05/19 07:58:46;;;;;;;8.82;3.17;;;13.10;99.90;;;;;;5132631;27;20110;-56
2023/05/19 08:01:11;;;;;;;10.05;3.40;;;13.20;99.90;;;;;;5132256;27;20057;-56
2023/05/19 08:03:37;;;;;;;9.88;3.47;;;13.30;99.90;;;;;;5132636;27;20122;-57
2023/05/19 08:06:03;;;;;;;10.55;2.83;;;13.40;99.90;;;;;;5132236;27;20038;-57
2023/05/19 08:08:29;;;;;;;11.20;3.20;;;13.50;99.90;;;;;;5132383;27;20034;-56
2023/05/19 08:10:54;;;;;;;11.23;2.90;;;13.70;99.90;;;;;;5132122;27;20071;-56
2023/05/19 08:13:20;;;;;;;9.02;2.72;;;13.80;99.90;;;;;;5132371;27;20110;-55
2023/05/19 08:15:46;;;;;;;7.82;2.63;;;13.90;99.90;;;;;;5113732;27;20038;-57
2023/05/19 08:18:12;;;;;;;9.55;2.92;;;14.00;99.90;;;;;;5131990;27;20497;-56
2023/05/19 08:20:37;;;;;;;9.75;2.90;;;14.00;99.90;;;;;;5114102;27;20034;-57
2023/05/19 08:23:03;;;;;;;11.30;2.85;;;14.00;99.90;;;;;;5132119;27;20031;-55
2023/05/19 08:25:29;;;;;;;7.90;2.60;;;14.10;99.90;;;;;;5132258;27;20035;-56
2023/05/19 08:27:54;;;;;;;8.77;2.63;;;14.20;99.90;;;;;;5132045;27;20039;-55
2023/05/19 08:30:20;;;;;;;9.52;2.65;;;14.20;99.90;;;;;;5132130;27;20035;-54
2023/05/19 08:32:47;;;;;;;7.07;2.50;;;14.30;99.90;;;;;;5131151;27;20026;-54
2023/05/19 08:35:13;;;;;;;7.25;2.55;;;14.40;99.90;;;;;;5132148;27;20031;-57
2023/05/19 08:37:38;;;;;;;9.65;2.70;;;14.40;99.90;;;;;;5131535;27;20751;-54
2023/05/19 08:40:05;;;;;;;9.98;2.65;;;14.40;99.90;;;;;;5131982;27;20081;-55
2023/05/19 08:42:34;;;;;;;8.27;2.38;;;14.50;99.90;;;;;;5131333;27;20035;-58
2023/05/19 08:45:01;;;;;;;8.32;2.70;;;14.50;99.90;;;;;;5131419;27;20039;-57
2023/05/19 08:47:28;;;;;;;8.23;2.53;;;14.60;99.90;;;;;;5131562;27;20039;-55
2023/05/19 08:50:06;;;;;;;10.70;2.75;;;14.60;99.90;;;;;;5131858;27;20043;-55
2023/05/19 08:52:44;;;;;;;7.97;2.67;;;14.80;99.90;;;;;;5113495;28;20447;-57
2023/05/19 08:55:20;;;;;;;7.70;2.25;;;14.90;99.90;;;;;;5131793;28;20035;-56
2023/05/19 08:57:48;;;;;;;10.18;2.40;;;15.00;99.90;;;;;;5130776;28;20054;-53
2023/05/19 09:00:15;;;;;;;10.00;2.38;;;15.20;99.90;;;;;;5131729;28;20066;-53
2023/05/19 09:02:41;;;;;;;10.00;2.47;;;15.30;99.90;;;;;;5131070;28;20035;-54
2023/05/19 09:05:08;;;;;;;7.88;2.58;;;15.40;99.90;;;;;;5131380;28;20401;-59
2023/05/19 09:07:36;;;;;;;10.02;2.53;;;15.60;99.90;;;;;;5112794;28;20041;-57
2023/05/19 09:10:02;;;;;;;7.13;2.33;;;15.70;99.90;;;;;;5131601;28;20112;-55
2023/05/19 09:12:28;;;;;;;7.93;2.35;;;15.80;99.90;;;;;;5130393;28;20394;-55
2023/05/19 09:14:55;;;;;;;8.70;2.45;;;15.90;99.90;;;;;;5131636;28;20036;-54
2023/05/19 09:17:21;;;;;;;8.85;2.40;;;16.10;99.90;;;;;;5131705;27;20091;-54
2023/05/19 09:19:48;;;;;;;8.45;2.63;;;16.30;99.90;;;;;;5131710;28;20453;-56
2023/05/19 09:22:18;;;;;;;7.75;2.58;;;16.40;99.90;;;;;;5131871;27;20039;-56
2023/05/19 09:24:44;;;;;;;7.95;1.95;;;16.60;99.90;;;;;;5131495;28;20334;-57
2023/05/19 09:27:14;;;;;;;9.70;2.33;;;16.70;99.90;;;;;;5131602;28;20367;-59
2023/05/19 09:29:41;;;;;;;7.63;2.10;;;16.80;99.90;;;;;;5131682;28;20123;-57
2023/05/19 09:32:07;;;;;;;6.72;2.70;;;16.70;99.90;;;;;;5130981;28;20483;-59
2023/05/19 09:34:33;;;;;;;7.70;2.13;;;16.60;99.90;;;;;;5131468;28;20034;-58
2023/05/19 09:36:58;;;;;;;7.05;2.20;;;16.40;99.90;;;;;;5130938;28;20135;-56
2023/05/19 09:39:25;;;;;;;8.35;2.55;;;16.40;99.90;;;;;;5131529;28;20085;-57
2023/05/19 09:41:57;;;;;;;9.27;2.75;;;16.50;99.90;;;;;;5131312;28;20116;-56
2023/05/19 09:44:27;;;;;;;6.93;2.40;;;16.50;99.90;;;;;;5131281;28;20039;-56
2023/05/19 09:46:53;;;;;;;9.18;2.50;;;16.50;99.90;;;;;;5131186;28;20039;-56
2023/05/19 09:49:23;;;;;;;13.07;3.50;;;16.50;99.90;;;;;;5129726;28;20099;-55
2023/05/19 09:52:00;;;;;;;9.32;2.65;;;16.60;99.90;;;;;;5131078;28;20096;-58
2023/05/19 09:54:28;;;;;;;9.27;3.00;;;16.70;99.90;;;;;;5131081;27;20060;-57
2023/05/19 09:57:02;;;;;;;9.70;3.15;;;16.90;99.90;;;;;;5134602;27;20039;-56
2023/05/19 09:59:28;;;;;;;;;;;16.90;99.90;;;;;;5133241;27;20035;-56
2023/05/19 10:01:55;;;;;;;8.93;2.95;;;16.90;99.90;;;;;;5134183;27;20018;-57
2023/05/19 10:04:26;;;;;;;5.75;2.10;;;17.00;99.90;;;;;;5135027;27;20031;-57
2023/05/19 10:06:53;;;;;;;10.85;2.72;;;17.30;99.90;;;;;;5134517;27;20095;-58
2023/05/19 10:09:28;;;;;;;9.48;2.60;;;17.40;99.90;;;;;;5134668;27;20118;-59
2023/05/19 10:11:57;;;;;;;8.02;2.97;;;17.60;99.90;;;;;;5134372;27;20083;-57
2023/05/19 10:14:25;;;;;;;9.63;2.58;;;17.70;99.90;;;;;;5134538;27;20027;-57
2023/05/19 10:16:52;;;;;;;8.07;2.60;;;17.80;99.90;;;;;;5134367;27;20123;-54
2023/05/19 10:19:24;;;;;;;10.48;2.60;;;17.90;99.90;;;;;;5134687;27;20508;-55
2023/05/19 10:21:50;;;;;;;10.30;2.78;;;18.00;99.30;;;;;;5134592;27;21441;-59
2023/05/19 10:24:17;;;;;;;9.52;2.65;;;18.00;99.20;;;;;;5134632;27;20075;-56
2023/05/19 10:26:56;;;;;;;11.45;2.95;;;18.10;99.10;;;;;;5134441;27;20043;-58
2023/05/19 10:29:27;;;;;;;10.20;2.70;;;18.10;99.20;;;;;;5134410;27;20075;-54
2023/05/19 10:31:55;;;;;;;7.35;2.42;;;18.10;98.80;;;;;;5131577;27;20125;-58
2023/05/19 10:34:32;;;;;;;6.57;2.55;;;18.20;98.90;;;;;;5134358;27;20039;-60
2023/05/19 10:37:18;;;;;;;8.77;2.35;;;18.30;98.80;;;;;;5133987;27;20088;-56
2023/05/19 10:39:44;;;;;;;8.30;2.45;;;18.50;98.00;;;;;;5133883;27;20039;-59
2023/05/19 10:42:14;;;;;;;10.32;2.72;;;18.50;98.40;;;;;;5134276;27;20163;-56
2023/05/19 10:44:58;;;;;;;8.88;2.20;;;18.60;98.20;;;;;;5133281;27;20043;-56
2023/05/19 10:47:24;;;;;;;7.22;2.30;;;18.50;97.90;;;;;;5133658;27;20078;-57
2023/05/19 10:49:54;;;;;;;11.10;2.80;;;18.30;98.10;;;;;;5134023;27;20084;-57
2023/05/19 10:52:22;;;;;;;9.00;2.50;;;18.30;97.70;;;;;;5133865;27;20531;-59
2023/05/19 10:54:48;;;;;;;5.93;2.17;;;18.20;97.60;;;;;;5133837;27;20051;-56
2023/05/19 10:57:15;;;;;;;12.25;2.20;;;18.20;97.40;;;;;;5133932;27;20534;-58
2023/05/19 10:59:44;;;;;;;7.07;2.30;;;18.20;97.30;;;;;;5133957;27;20074;-57
2023/05/19 11:02:30;;;;;;;8.43;2.35;;;18.20;97.70;;;;;;5133047;27;20086;-55
2023/05/19 11:05:17;;;;;;;9.35;2.08;;;18.40;97.90;;;;;;5133414;27;20031;-57
2023/05/19 11:08:04;;;;;;;6.55;2.13;;;18.50;98.00;;;;;;5132706;27;20542;-56
2023/05/19 11:10:31;;;;;;;8.77;2.47;;;18.60;97.50;;;;;;5114921;27;20050;-56
2023/05/19 11:12:57;;;;;;;6.80;2.00;;;18.80;97.30;;;;;;5133596;27;20038;-59
2023/05/19 11:15:26;;;;;;;8.95;2.28;;;18.90;97.40;;;;;;5132437;27;20035;-57
2023/05/19 11:17:52;;;;;;;8.90;2.10;;;19.10;97.30;;;;;;5133047;27;20082;-58
2023/05/19 11:20:26;;;;;;;7.25;2.50;;;19.20;97.00;;;;;;5133040;27;20039;-54
2023/05/19 11:23:07;;;;;;;7.47;2.38;;;19.30;96.50;;;;;;5133423;27;20366;-59
2023/05/19 11:25:42;;;;;;;8.63;2.25;;;19.40;96.60;;;;;;5133436;27;20035;-56
2023/05/19 11:28:10;;;;;;;8.02;2.20;;;19.50;96.10;;;;;;5133308;27;20046;-57
2023/05/19 11:30:37;;;;;;;7.53;2.13;;;19.50;95.90;;;;;;5133120;27;20038;-55
2023/05/19 11:33:03;;;;;;;7.07;2.10;;;19.50;96.10;;;;;;5132878;27;20068;-60
2023/05/19 11:35:29;;;;;;;7.63;1.95;;;19.70;96.30;;;;;;5132974;27;20121;-60
2023/05/19 11:37:56;;;;;;;11.32;2.10;;;19.90;96.70;;;;;;5132731;27;20048;-58
2023/05/19 11:40:22;;;;;;;7.43;1.90;;;20.20;96.00;;;;;;5133035;27;20382;-57
2023/05/19 11:42:48;;;;;;;6.75;2.33;;;20.30;95.30;;;;;;5132999;27;20389;-56
2023/05/19 11:45:13;;;;;;;9.50;2.17;;;20.20;94.90;;;;;;5132907;27;20118;-58
2023/05/19 11:47:39;;;;;;;9.00;2.20;;;20.20;94.90;;;;;;5132875;27;20031;-58
2023/05/19 11:50:05;;;;;;;6.10;2.10;;;20.20;94.90;;;;;;5132929;27;20035;-56
2023/05/19 11:52:31;;;;;;;8.35;2.30;;;20.30;94.90;;;;;;5132770;27;20512;-60
2023/05/19 11:55:00;;;;;;;8.27;2.20;;;20.40;94.50;;;;;;5132682;27;20070;-57
2023/05/19 11:57:26;;;;;;;9.43;2.13;;;20.50;95.20;;;;;;5132439;27;20043;-57
2023/05/19 11:59:55;;;;;;;5.78;1.92;;;20.80;94.80;;;;;;5132638;27;20431;-57
2023/05/19 12:02:26;;;;;;;7.70;1.75;;;20.80;94.10;;;;;;5132196;27;20043;-58
2023/05/19 12:04:52;;;;;;;7.05;1.90;;;20.80;94.00;;;;;;5132650;27;20511;-58
2023/05/19 12:07:21;;;;;;;6.22;2.20;;;20.90;93.80;;;;;;5132527;27;20047;-60
2023/05/19 12:09:48;;;;;;;5.55;2.03;;;21.00;94.30;;;;;;5132253;27;20042;-57
2023/05/19 12:12:21;;;;;;;7.70;1.85;;;21.10;93.30;;;;;;5132210;27;20043;-56
2023/05/19 12:14:51;;;;;;;8.67;2.00;;;21.10;93.50;;;;;;5131804;27;20057;-59
2023/05/19 12:17:20;;;;;;;7.60;2.13;;;21.20;93.40;;;;;;5131787;27;20039;-59
2023/05/19 12:19:47;;;;;;;8.45;2.08;;;21.30;92.90;;;;;;5130773;27;20039;-58
2023/05/19 12:22:14;;;;;;;8.57;1.90;;;21.40;92.80;;;;;;5131896;27;20031;-59
2023/05/19 12:24:42;;;;;;;5.80;1.65;;;21.60;92.90;;;;;;5132362;27;20404;-57
2023/05/19 12:27:25;;;;;;;5.25;1.90;;;21.70;92.50;;;;;;5132164;27;20047;-58
2023/05/19 12:29:56;;;;;;;5.35;1.77;;;21.80;93.00;;;;;;5132004;27;20045;-58
2023/05/19 12:32:27;;;;;;;7.03;1.98;;;22.00;92.40;;;;;;5131342;27;20073;-59
2023/05/19 12:34:55;;;;;;;7.90;2.20;;;22.10;92.40;;;;;;5131724;27;20054;-57
2023/05/19 12:37:21;;;;;;;5.82;2.28;;;22.20;92.10;;;;;;5112842;28;20031;-60
2023/05/19 12:39:49;;;;;;;6.20;2.05;;;22.20;92.10;;;;;;5113723;27;20042;-58
2023/05/19 12:42:15;;;;;;;7.40;2.03;;;22.40;91.90;;;;;;5130512;27;20047;-57
2023/05/19 12:44:47;;;;;;;6.32;1.73;;;22.50;91.90;;;;;;5132157;27;20027;-56
2023/05/19 12:47:14;;;;;;;7.93;1.88;;;22.70;91.10;;;;;;5131169;27;20144;-59
2023/05/19 12:49:59;;;;;;;7.82;2.10;;;22.80;91.80;;;;;;5130731;27;20046;-58